This is the latest recevied weather packets stored in our database for station/object OK1JIL-13. If no packets are shown the sender has not sent any weather packets the latest 1 day(s).
| Time | Temp. | Humidity | Pressure | Rain* | Wind** | Luminosity | Snow |
|---|---|---|---|---|---|---|---|
| 1778036395 | 13.89° C | 64% | 1006.7 hPa | - | - | - | - |
| 1778035195 | 13.89° C | 65% | 1006.7 hPa | - | - | - | - |
| 1778033995 | 13.89° C | 63% | 1006.8 hPa | - | - | - | - |
| 1778033395 | 13.89° C | 62% | 1006.7 hPa | - | - | - | - |
| 1778032795 | 13.89° C | 61% | 1006.6 hPa | - | - | - | - |
| 1778032196 | 14.44° C | 59% | 1006.4 hPa | - | - | - | - |
| 1778031595 | 13.89° C | 61% | 1006.3 hPa | - | - | - | - |
| 1778030395 | 14.44° C | 63% | 1006.2 hPa | - | - | - | - |
| 1778029795 | 14.44° C | 64% | 1006.5 hPa | - | - | - | - |
| 1778029195 | 13.89° C | 64% | 1006.8 hPa | - | - | - | - |
| 1778028595 | 13.89° C | 66% | 1007.1 hPa | - | - | - | - |
| 1778027995 | 13.89° C | 65% | 1007.2 hPa | - | - | - | - |
| 1778027395 | 14.44° C | 65% | 1007.3 hPa | - | - | - | - |
| 1778026795 | 14.44° C | 64% | 1007.2 hPa | - | - | - | - |
| 1778026198 | 15° C | 64% | 1007.2 hPa | - | - | - | - |
| 1778024994 | 15° C | 61% | 1007.3 hPa | - | - | - | - |
| 1778024394 | 15.56° C | 61% | 1007.4 hPa | - | - | - | - |
| 1778023794 | 15.56° C | 61% | 1007.5 hPa | - | - | - | - |
| 1778023194 | 15° C | 64% | 1007.6 hPa | - | - | - | - |
| 1778022594 | 15.56° C | 60% | 1007.7 hPa | - | - | - | - |
| 1778021394 | 16.11° C | 59% | 1007.9 hPa | - | - | - | - |
| 1778020794 | 16.67° C | 55% | 1007.6 hPa | - | - | - | - |
| 1778020194 | 16.67° C | 53% | 1007.5 hPa | - | - | - | - |
| 1778019594 | 15.56° C | 57% | 1007.1 hPa | - | - | - | - |
| 1778018994 | 14.44° C | 62% | 1007 hPa | - | - | - | - |
* Rain since midnight (hover to see other rain measurements)
** Current wind speed in m/s (hover to see current wind gust speed)